sensor_id;sensor_type;location;lat;lon;timestamp;temperature;humidity
51793;DHT22;37850;53.178;6.376;2023-07-09T00:01:51;23.50;95.50
51793;DHT22;37850;53.178;6.376;2023-07-09T00:04:17;23.40;95.60
51793;DHT22;37850;53.178;6.376;2023-07-09T00:06:43;23.40;95.50
51793;DHT22;37850;53.178;6.376;2023-07-09T00:09:20;23.30;95.60
51793;DHT22;37850;53.178;6.376;2023-07-09T00:11:47;23.30;95.80
51793;DHT22;37850;53.178;6.376;2023-07-09T00:14:15;23.30;95.70
51793;DHT22;37850;53.178;6.376;2023-07-09T00:16:42;23.20;96.00
51793;DHT22;37850;53.178;6.376;2023-07-09T00:19:13;23.20;96.10
51793;DHT22;37850;53.178;6.376;2023-07-09T00:21:41;23.10;96.00
51793;DHT22;37850;53.178;6.376;2023-07-09T00:24:08;23.10;96.00
51793;DHT22;37850;53.178;6.376;2023-07-09T00:26:36;23.10;96.10
51793;DHT22;37850;53.178;6.376;2023-07-09T00:29:04;23.00;96.20
51793;DHT22;37850;53.178;6.376;2023-07-09T00:31:30;23.00;96.30
51793;DHT22;37850;53.178;6.376;2023-07-09T00:33:56;23.00;96.30
51793;DHT22;37850;53.178;6.376;2023-07-09T00:36:29;22.90;96.40
51793;DHT22;37850;53.178;6.376;2023-07-09T00:38:57;22.90;96.50
51793;DHT22;37850;53.178;6.376;2023-07-09T00:41:33;22.80;96.50
51793;DHT22;37850;53.178;6.376;2023-07-09T00:49:18;22.70;96.70
51793;DHT22;37850;53.178;6.376;2023-07-09T00:51:46;22.70;96.80
51793;DHT22;37850;53.178;6.376;2023-07-09T00:54:23;22.70;97.00
51793;DHT22;37850;53.178;6.376;2023-07-09T00:56:59;22.60;97.10
51793;DHT22;37850;53.178;6.376;2023-07-09T00:59:29;22.60;97.20
51793;DHT22;37850;53.178;6.376;2023-07-09T01:01:56;22.60;97.40
51793;DHT22;37850;53.178;6.376;2023-07-09T01:04:23;22.50;97.50
51793;DHT22;37850;53.178;6.376;2023-07-09T01:06:51;22.50;97.50
51793;DHT22;37850;53.178;6.376;2023-07-09T01:09:18;22.50;97.70
51793;DHT22;37850;53.178;6.376;2023-07-09T01:11:44;22.40;97.70
51793;DHT22;37850;53.178;6.376;2023-07-09T01:14:13;22.40;97.90
51793;DHT22;37850;53.178;6.376;2023-07-09T01:17:00;22.30;97.80
51793;DHT22;37850;53.178;6.376;2023-07-09T01:19:29;22.30;98.00
51793;DHT22;37850;53.178;6.376;2023-07-09T01:22:00;22.30;98.00
51793;DHT22;37850;53.178;6.376;2023-07-09T01:24:49;22.20;98.00
51793;DHT22;37850;53.178;6.376;2023-07-09T01:27:16;22.20;98.10
51793;DHT22;37850;53.178;6.376;2023-07-09T01:29:43;22.20;98.10
51793;DHT22;37850;53.178;6.376;2023-07-09T01:32:15;22.20;98.10
51793;DHT22;37850;53.178;6.376;2023-07-09T01:34:44;22.10;98.20
51793;DHT22;37850;53.178;6.376;2023-07-09T01:37:17;22.10;98.40
51793;DHT22;37850;53.178;6.376;2023-07-09T01:39:43;22.10;98.30
51793;DHT22;37850;53.178;6.376;2023-07-09T01:42:09;22.10;98.30
51793;DHT22;37850;53.178;6.376;2023-07-09T01:44:36;22.00;98.40
51793;DHT22;37850;53.178;6.376;2023-07-09T01:47:04;22.00;98.50
51793;DHT22;37850;53.178;6.376;2023-07-09T01:49:30;22.00;98.50
51793;DHT22;37850;53.178;6.376;2023-07-09T01:52:01;22.00;98.60
51793;DHT22;37850;53.178;6.376;2023-07-09T01:54:31;21.90;98.70
51793;DHT22;37850;53.178;6.376;2023-07-09T01:57:20;21.90;98.80
51793;DHT22;37850;53.178;6.376;2023-07-09T01:59:49;21.90;98.80
51793;DHT22;37850;53.178;6.376;2023-07-09T02:02:14;21.90;98.80
51793;DHT22;37850;53.178;6.376;2023-07-09T02:04:41;21.80;99.00
51793;DHT22;37850;53.178;6.376;2023-07-09T02:07:08;21.80;99.10
51793;DHT22;37850;53.178;6.376;2023-07-09T02:09:34;21.70;99.50
51793;DHT22;37850;53.178;6.376;2023-07-09T02:12:00;21.70;99.40
51793;DHT22;37850;53.178;6.376;2023-07-09T02:14:28;21.70;99.50
51793;DHT22;37850;53.178;6.376;2023-07-09T02:16:53;21.60;99.60
51793;DHT22;37850;53.178;6.376;2023-07-09T02:19:19;21.60;99.60
51793;DHT22;37850;53.178;6.376;2023-07-09T02:21:45;21.60;99.90
51793;DHT22;37850;53.178;6.376;2023-07-09T02:24:10;21.50;99.90
51793;DHT22;37850;53.178;6.376;2023-07-09T02:26:36;21.50;99.90
51793;DHT22;37850;53.178;6.376;2023-07-09T02:29:02;21.50;99.90
51793;DHT22;37850;53.178;6.376;2023-07-09T02:31:28;21.50;99.90
51793;DHT22;37850;53.178;6.376;2023-07-09T02:33:56;21.40;99.90
51793;DHT22;37850;53.178;6.376;2023-07-09T02:36:23;21.40;99.90
51793;DHT22;37850;53.178;6.376;2023-07-09T02:38:49;21.30;99.90
51793;DHT22;37850;53.178;6.376;2023-07-09T02:41:14;21.30;99.90
51793;DHT22;37850;53.178;6.376;2023-07-09T02:43:41;21.30;99.90
51793;DHT22;37850;53.178;6.376;2023-07-09T02:46:06;21.30;99.90
51793;DHT22;37850;53.178;6.376;2023-07-09T02:48:32;21.20;99.90
51793;DHT22;37850;53.178;6.376;2023-07-09T02:50:58;21.20;99.90
51793;DHT22;37850;53.178;6.376;2023-07-09T02:53:24;21.20;99.90
51793;DHT22;37850;53.178;6.376;2023-07-09T02:55:49;21.20;99.90
51793;DHT22;37850;53.178;6.376;2023-07-09T02:58:15;21.10;99.90
51793;DHT22;37850;53.178;6.376;2023-07-09T03:00:41;21.10;99.90
51793;DHT22;37850;53.178;6.376;2023-07-09T03:03:07;21.10;99.90
51793;DHT22;37850;53.178;6.376;2023-07-09T03:05:33;21.00;99.90
51793;DHT22;37850;53.178;6.376;2023-07-09T03:07:59;21.00;99.90
51793;DHT22;37850;53.178;6.376;2023-07-09T03:10:25;21.00;99.90
51793;DHT22;37850;53.178;6.376;2023-07-09T03:12:50;20.90;99.90
51793;DHT22;37850;53.178;6.376;2023-07-09T03:15:16;20.90;99.90
51793;DHT22;37850;53.178;6.376;2023-07-09T03:17:42;20.80;99.90
51793;DHT22;37850;53.178;6.376;2023-07-09T03:20:08;20.80;99.90
51793;DHT22;37850;53.178;6.376;2023-07-09T03:22:34;20.80;99.90
51793;DHT22;37850;53.178;6.376;2023-07-09T03:25:00;20.70;99.90
51793;DHT22;37850;53.178;6.376;2023-07-09T03:27:25;20.70;99.90
51793;DHT22;37850;53.178;6.376;2023-07-09T03:29:51;20.70;99.90
51793;DHT22;37850;53.178;6.376;2023-07-09T03:32:17;20.70;99.90
51793;DHT22;37850;53.178;6.376;2023-07-09T03:34:42;20.70;99.90
51793;DHT22;37850;53.178;6.376;2023-07-09T03:37:08;20.60;99.90
51793;DHT22;37850;53.178;6.376;2023-07-09T03:39:34;20.60;99.90
51793;DHT22;37850;53.178;6.376;2023-07-09T03:41:59;20.60;99.90
51793;DHT22;37850;53.178;6.376;2023-07-09T03:44:25;20.60;99.90
51793;DHT22;37850;53.178;6.376;2023-07-09T03:46:51;20.70;99.90
51793;DHT22;37850;53.178;6.376;2023-07-09T03:49:17;20.50;99.90
51793;DHT22;37850;53.178;6.376;2023-07-09T03:51:42;20.50;99.90
51793;DHT22;37850;53.178;6.376;2023-07-09T03:54:08;20.50;99.90
51793;DHT22;37850;53.178;6.376;2023-07-09T03:56:34;20.50;99.90
51793;DHT22;37850;53.178;6.376;2023-07-09T03:58:59;20.50;99.90
51793;DHT22;37850;53.178;6.376;2023-07-09T04:01:25;20.50;99.90
51793;DHT22;37850;53.178;6.376;2023-07-09T04:03:51;20.50;99.90
51793;DHT22;37850;53.178;6.376;2023-07-09T04:06:17;20.50;99.90
51793;DHT22;37850;53.178;6.376;2023-07-09T04:08:42;20.40;99.90
51793;DHT22;37850;53.178;6.376;2023-07-09T04:11:09;20.40;99.90
51793;DHT22;37850;53.178;6.376;2023-07-09T04:13:35;20.40;99.90
51793;DHT22;37850;53.178;6.376;2023-07-09T04:16:01;20.40;99.90
51793;DHT22;37850;53.178;6.376;2023-07-09T04:18:26;20.40;99.90
51793;DHT22;37850;53.178;6.376;2023-07-09T04:20:52;20.30;99.90
51793;DHT22;37850;53.178;6.376;2023-07-09T04:23:19;20.30;99.90
51793;DHT22;37850;53.178;6.376;2023-07-09T04:25:45;20.30;99.90
51793;DHT22;37850;53.178;6.376;2023-07-09T04:28:10;20.30;99.90
51793;DHT22;37850;53.178;6.376;2023-07-09T04:30:37;20.40;99.90
51793;DHT22;37850;53.178;6.376;2023-07-09T04:33:03;20.40;99.90
51793;DHT22;37850;53.178;6.376;2023-07-09T04:35:28;20.40;99.90
51793;DHT22;37850;53.178;6.376;2023-07-09T04:37:55;20.40;99.90
51793;DHT22;37850;53.178;6.376;2023-07-09T04:40:20;20.40;99.90
51793;DHT22;37850;53.178;6.376;2023-07-09T04:42:46;20.50;99.90
51793;DHT22;37850;53.178;6.376;2023-07-09T04:45:12;20.60;99.90
51793;DHT22;37850;53.178;6.376;2023-07-09T04:47:38;20.60;99.90
51793;DHT22;37850;53.178;6.376;2023-07-09T04:50:08;20.80;99.90
51793;DHT22;37850;53.178;6.376;2023-07-09T04:52:34;20.90;99.90
51793;DHT22;37850;53.178;6.376;2023-07-09T04:55:00;21.10;99.90
51793;DHT22;37850;53.178;6.376;2023-07-09T04:57:27;21.20;99.90
51793;DHT22;37850;53.178;6.376;2023-07-09T04:59:53;21.30;99.90
51793;DHT22;37850;53.178;6.376;2023-07-09T05:02:19;21.40;99.90
51793;DHT22;37850;53.178;6.376;2023-07-09T05:04:45;21.40;99.90
51793;DHT22;37850;53.178;6.376;2023-07-09T05:07:10;21.40;99.90
51793;DHT22;37850;53.178;6.376;2023-07-09T05:09:36;21.50;99.90
51793;DHT22;37850;53.178;6.376;2023-07-09T05:12:02;21.60;99.90
51793;DHT22;37850;53.178;6.376;2023-07-09T05:14:28;21.60;99.90
51793;DHT22;37850;53.178;6.376;2023-07-09T05:16:54;21.80;99.90
51793;DHT22;37850;53.178;6.376;2023-07-09T05:19:19;21.80;99.90
51793;DHT22;37850;53.178;6.376;2023-07-09T05:21:45;22.00;99.90
51793;DHT22;37850;53.178;6.376;2023-07-09T05:24:11;22.20;99.90
51793;DHT22;37850;53.178;6.376;2023-07-09T05:26:37;22.30;99.90
51793;DHT22;37850;53.178;6.376;2023-07-09T05:29:04;22.30;99.90
51793;DHT22;37850;53.178;6.376;2023-07-09T05:31:31;22.30;99.90
51793;DHT22;37850;53.178;6.376;2023-07-09T05:33:58;22.30;99.90
51793;DHT22;37850;53.178;6.376;2023-07-09T05:36:25;22.30;99.90
51793;DHT22;37850;53.178;6.376;2023-07-09T05:38:51;22.30;99.90
51793;DHT22;37850;53.178;6.376;2023-07-09T05:41:17;22.30;99.90
51793;DHT22;37850;53.178;6.376;2023-07-09T05:43:44;22.30;99.90
51793;DHT22;37850;53.178;6.376;2023-07-09T05:46:14;22.20;99.90
51793;DHT22;37850;53.178;6.376;2023-07-09T05:48:40;22.30;99.90
51793;DHT22;37850;53.178;6.376;2023-07-09T05:51:05;22.20;99.90
51793;DHT22;37850;53.178;6.376;2023-07-09T05:53:31;22.20;99.90
51793;DHT22;37850;53.178;6.376;2023-07-09T05:55:58;22.20;99.90
51793;DHT22;37850;53.178;6.376;2023-07-09T05:58:24;22.30;99.90
51793;DHT22;37850;53.178;6.376;2023-07-09T06:00:52;22.30;99.90
51793;DHT22;37850;53.178;6.376;2023-07-09T06:03:20;22.20;99.90
51793;DHT22;37850;53.178;6.376;2023-07-09T06:05:47;22.30;99.90
51793;DHT22;37850;53.178;6.376;2023-07-09T06:08:24;22.30;99.90
51793;DHT22;37850;53.178;6.376;2023-07-09T06:10:59;22.30;99.90
51793;DHT22;37850;53.178;6.376;2023-07-09T06:13:26;22.40;99.90
51793;DHT22;37850;53.178;6.376;2023-07-09T06:15:53;22.40;99.90
51793;DHT22;37850;53.178;6.376;2023-07-09T06:18:21;22.60;99.90
51793;DHT22;37850;53.178;6.376;2023-07-09T06:20:53;22.70;99.90
51793;DHT22;37850;53.178;6.376;2023-07-09T06:23:20;22.80;99.90
51793;DHT22;37850;53.178;6.376;2023-07-09T06:25:46;22.80;99.90
51793;DHT22;37850;53.178;6.376;2023-07-09T06:28:17;22.90;99.90
51793;DHT22;37850;53.178;6.376;2023-07-09T06:30:44;23.10;99.90
51793;DHT22;37850;53.178;6.376;2023-07-09T06:33:11;23.20;99.90
51793;DHT22;37850;53.178;6.376;2023-07-09T06:35:38;23.20;99.90
51793;DHT22;37850;53.178;6.376;2023-07-09T06:38:05;23.20;99.90
51793;DHT22;37850;53.178;6.376;2023-07-09T06:40:31;23.20;99.90
51793;DHT22;37850;53.178;6.376;2023-07-09T06:42:57;23.20;99.90
51793;DHT22;37850;53.178;6.376;2023-07-09T06:45:24;23.30;99.90
51793;DHT22;37850;53.178;6.376;2023-07-09T06:47:49;23.30;99.90
51793;DHT22;37850;53.178;6.376;2023-07-09T06:50:15;23.30;99.90
51793;DHT22;37850;53.178;6.376;2023-07-09T06:52:41;23.40;99.90
51793;DHT22;37850;53.178;6.376;2023-07-09T06:55:08;23.40;99.90
51793;DHT22;37850;53.178;6.376;2023-07-09T06:57:34;23.40;99.90
51793;DHT22;37850;53.178;6.376;2023-07-09T07:00:00;23.50;99.90
51793;DHT22;37850;53.178;6.376;2023-07-09T07:02:25;23.40;99.90
51793;DHT22;37850;53.178;6.376;2023-07-09T07:04:51;23.50;99.90
51793;DHT22;37850;53.178;6.376;2023-07-09T07:07:17;23.50;99.90
51793;DHT22;37850;53.178;6.376;2023-07-09T07:09:43;23.60;99.90
51793;DHT22;37850;53.178;6.376;2023-07-09T07:12:09;23.70;99.90
51793;DHT22;37850;53.178;6.376;2023-07-09T07:14:34;23.80;99.90
51793;DHT22;37850;53.178;6.376;2023-07-09T07:17:00;23.80;99.90
51793;DHT22;37850;53.178;6.376;2023-07-09T07:19:27;24.00;99.90
51793;DHT22;37850;53.178;6.376;2023-07-09T07:21:52;24.00;99.90
51793;DHT22;37850;53.178;6.376;2023-07-09T07:24:18;24.20;99.90
51793;DHT22;37850;53.178;6.376;2023-07-09T07:26:44;24.30;99.90
51793;DHT22;37850;53.178;6.376;2023-07-09T07:29:10;24.30;99.90
51793;DHT22;37850;53.178;6.376;2023-07-09T07:31:35;24.40;99.90
51793;DHT22;37850;53.178;6.376;2023-07-09T07:34:01;24.50;99.90
51793;DHT22;37850;53.178;6.376;2023-07-09T07:36:27;24.50;99.90
51793;DHT22;37850;53.178;6.376;2023-07-09T07:38:52;24.60;99.90
51793;DHT22;37850;53.178;6.376;2023-07-09T07:41:18;24.60;99.90
51793;DHT22;37850;53.178;6.376;2023-07-09T07:43:44;24.60;99.90
51793;DHT22;37850;53.178;6.376;2023-07-09T07:46:10;24.80;99.90
51793;DHT22;37850;53.178;6.376;2023-07-09T07:48:35;24.90;99.90
51793;DHT22;37850;53.178;6.376;2023-07-09T07:51:02;25.00;99.90
51793;DHT22;37850;53.178;6.376;2023-07-09T07:53:29;25.10;99.90
51793;DHT22;37850;53.178;6.376;2023-07-09T07:55:57;25.20;99.90
51793;DHT22;37850;53.178;6.376;2023-07-09T07:58:23;25.30;99.90
51793;DHT22;37850;53.178;6.376;2023-07-09T08:00:49;25.50;99.90
51793;DHT22;37850;53.178;6.376;2023-07-09T08:03:14;25.60;99.90
51793;DHT22;37850;53.178;6.376;2023-07-09T08:05:40;25.70;99.90
51793;DHT22;37850;53.178;6.376;2023-07-09T08:08:06;25.80;99.90
51793;DHT22;37850;53.178;6.376;2023-07-09T08:10:32;25.90;99.90
51793;DHT22;37850;53.178;6.376;2023-07-09T08:12:57;26.00;99.90
51793;DHT22;37850;53.178;6.376;2023-07-09T08:15:24;26.10;99.90
51793;DHT22;37850;53.178;6.376;2023-07-09T08:17:50;26.20;99.90
51793;DHT22;37850;53.178;6.376;2023-07-09T08:20:16;26.20;99.90
51793;DHT22;37850;53.178;6.376;2023-07-09T08:22:42;26.30;99.90
51793;DHT22;37850;53.178;6.376;2023-07-09T08:25:08;26.40;99.90
51793;DHT22;37850;53.178;6.376;2023-07-09T08:27:34;26.50;99.90
51793;DHT22;37850;53.178;6.376;2023-07-09T08:30:00;26.50;99.90
51793;DHT22;37850;53.178;6.376;2023-07-09T08:32:25;26.60;99.90
51793;DHT22;37850;53.178;6.376;2023-07-09T08:34:51;26.70;99.90
51793;DHT22;37850;53.178;6.376;2023-07-09T08:37:17;26.70;99.90
51793;DHT22;37850;53.178;6.376;2023-07-09T08:39:42;26.80;99.90
51793;DHT22;37850;53.178;6.376;2023-07-09T08:42:11;26.90;99.90
51793;DHT22;37850;53.178;6.376;2023-07-09T08:50:16;27.30;99.90
51793;DHT22;37850;53.178;6.376;2023-07-09T08:52:45;27.40;99.90
51793;DHT22;37850;53.178;6.376;2023-07-09T08:55:15;27.40;99.90
51793;DHT22;37850;53.178;6.376;2023-07-09T08:57:44;27.50;99.90
51793;DHT22;37850;53.178;6.376;2023-07-09T09:00:32;27.60;99.90
51793;DHT22;37850;53.178;6.376;2023-07-09T09:03:10;27.70;99.90
51793;DHT22;37850;53.178;6.376;2023-07-09T09:05:42;27.70;99.90
51793;DHT22;37850;53.178;6.376;2023-07-09T09:11:23;27.90;99.90
51793;DHT22;37850;53.178;6.376;2023-07-09T09:13:54;27.90;99.90
51793;DHT22;37850;53.178;6.376;2023-07-09T09:16:26;27.90;99.90
51793;DHT22;37850;53.178;6.376;2023-07-09T09:18:57;28.00;99.90
51793;DHT22;37850;53.178;6.376;2023-07-09T09:21:31;28.00;99.90
51793;DHT22;37850;53.178;6.376;2023-07-09T09:24:01;28.00;99.90
51793;DHT22;37850;53.178;6.376;2023-07-09T09:26:35;28.10;99.90
51793;DHT22;37850;53.178;6.376;2023-07-09T09:29:12;28.20;99.90
51793;DHT22;37850;53.178;6.376;2023-07-09T09:31:38;28.20;99.90
51793;DHT22;37850;53.178;6.376;2023-07-09T09:34:04;28.20;99.90
51793;DHT22;37850;53.178;6.376;2023-07-09T09:36:30;28.20;99.90
51793;DHT22;37850;53.178;6.376;2023-07-09T09:39:02;28.30;99.90
51793;DHT22;37850;53.178;6.376;2023-07-09T09:41:33;28.30;99.90
51793;DHT22;37850;53.178;6.376;2023-07-09T09:44:01;28.30;99.90
51793;DHT22;37850;53.178;6.376;2023-07-09T09:46:27;28.30;99.90
51793;DHT22;37850;53.178;6.376;2023-07-09T09:48:55;28.30;99.90
51793;DHT22;37850;53.178;6.376;2023-07-09T09:51:23;28.40;99.90
51793;DHT22;37850;53.178;6.376;2023-07-09T09:54:00;28.40;99.90
51793;DHT22;37850;53.178;6.376;2023-07-09T09:58:53;28.50;99.90
51793;DHT22;37850;53.178;6.376;2023-07-09T10:01:29;28.50;99.90
51793;DHT22;37850;53.178;6.376;2023-07-09T10:03:57;28.60;99.90
51793;DHT22;37850;53.178;6.376;2023-07-09T10:06:40;28.60;99.90
51793;DHT22;37850;53.178;6.376;2023-07-09T10:09:33;28.60;99.90
51793;DHT22;37850;53.178;6.376;2023-07-09T10:12:18;28.70;99.90
51793;DHT22;37850;53.178;6.376;2023-07-09T10:17:42;28.80;99.90
51793;DHT22;37850;53.178;6.376;2023-07-09T10:20:21;28.80;99.90
51793;DHT22;37850;53.178;6.376;2023-07-09T10:25:30;28.80;99.90
51793;DHT22;37850;53.178;6.376;2023-07-09T10:33:46;28.90;99.90
51793;DHT22;37850;53.178;6.376;2023-07-09T10:39:14;28.90;99.90
51793;DHT22;37850;53.178;6.376;2023-07-09T10:41:43;28.90;99.90
51793;DHT22;37850;53.178;6.376;2023-07-09T10:44:23;29.00;99.90
51793;DHT22;37850;53.178;6.376;2023-07-09T10:46:58;29.00;99.90
51793;DHT22;37850;53.178;6.376;2023-07-09T10:49:33;29.00;99.90
51793;DHT22;37850;53.178;6.376;2023-07-09T10:52:08;29.00;99.90
51793;DHT22;37850;53.178;6.376;2023-07-09T11:00:36;29.10;99.90
51793;DHT22;37850;53.178;6.376;2023-07-09T11:05:51;29.00;99.10
51793;DHT22;37850;53.178;6.376;2023-07-09T11:08:24;28.90;97.70
51793;DHT22;37850;53.178;6.376;2023-07-09T11:10:56;28.80;97.20
51793;DHT22;37850;53.178;6.376;2023-07-09T11:13:41;28.80;96.90
51793;DHT22;37850;53.178;6.376;2023-07-09T11:16:14;28.70;97.30
51793;DHT22;37850;53.178;6.376;2023-07-09T11:18:40;28.70;97.40
51793;DHT22;37850;53.178;6.376;2023-07-09T11:21:16;28.70;97.90
51793;DHT22;37850;53.178;6.376;2023-07-09T11:23:52;28.80;97.00
51793;DHT22;37850;53.178;6.376;2023-07-09T11:26:28;28.80;97.30
51793;DHT22;37850;53.178;6.376;2023-07-09T11:31:38;28.90;97.90
51793;DHT22;37850;53.178;6.376;2023-07-09T11:34:08;28.90;98.30
51793;DHT22;37850;53.178;6.376;2023-07-09T11:41:55;29.10;98.30
51793;DHT22;37850;53.178;6.376;2023-07-09T11:44:29;29.20;98.80
51793;DHT22;37850;53.178;6.376;2023-07-09T11:49:31;29.30;98.70
51793;DHT22;37850;53.178;6.376;2023-07-09T11:52:02;29.30;98.40
51793;DHT22;37850;53.178;6.376;2023-07-09T11:54:36;29.40;97.90
51793;DHT22;37850;53.178;6.376;2023-07-09T11:57:05;29.30;96.60
51793;DHT22;37850;53.178;6.376;2023-07-09T11:59:42;29.30;96.40
51793;DHT22;37850;53.178;6.376;2023-07-09T12:02:20;29.20;96.60
51793;DHT22;37850;53.178;6.376;2023-07-09T12:04:50;29.30;95.60
51793;DHT22;37850;53.178;6.376;2023-07-09T12:07:20;29.20;96.10
51793;DHT22;37850;53.178;6.376;2023-07-09T12:09:50;29.30;97.00
51793;DHT22;37850;53.178;6.376;2023-07-09T12:14:43;29.40;96.50
51793;DHT22;37850;53.178;6.376;2023-07-09T12:17:09;29.40;95.90
51793;DHT22;37850;53.178;6.376;2023-07-09T12:19:35;29.50;96.40
51793;DHT22;37850;53.178;6.376;2023-07-09T12:22:01;29.50;96.70
51793;DHT22;37850;53.178;6.376;2023-07-09T12:24:30;29.50;97.10
51793;DHT22;37850;53.178;6.376;2023-07-09T12:26:58;29.60;96.80
51793;DHT22;37850;53.178;6.376;2023-07-09T12:29:29;29.60;96.90
51793;DHT22;37850;53.178;6.376;2023-07-09T12:31:59;29.70;97.20
51793;DHT22;37850;53.178;6.376;2023-07-09T12:34:31;29.70;97.20
51793;DHT22;37850;53.178;6.376;2023-07-09T12:36:58;29.70;96.90
51793;DHT22;37850;53.178;6.376;2023-07-09T12:39:26;29.70;97.00
51793;DHT22;37850;53.178;6.376;2023-07-09T12:41:55;29.70;96.90
51793;DHT22;37850;53.178;6.376;2023-07-09T12:44:23;29.70;96.80
51793;DHT22;37850;53.178;6.376;2023-07-09T12:46:51;29.70;96.40
51793;DHT22;37850;53.178;6.376;2023-07-09T12:49:28;29.70;96.50
51793;DHT22;37850;53.178;6.376;2023-07-09T12:52:00;29.60;95.90
51793;DHT22;37850;53.178;6.376;2023-07-09T12:54:28;29.60;96.00
51793;DHT22;37850;53.178;6.376;2023-07-09T12:56:55;29.70;96.10
51793;DHT22;37850;53.178;6.376;2023-07-09T12:59:24;29.60;96.00
51793;DHT22;37850;53.178;6.376;2023-07-09T13:01:55;29.70;96.10
51793;DHT22;37850;53.178;6.376;2023-07-09T13:04:29;29.60;95.70
51793;DHT22;37850;53.178;6.376;2023-07-09T13:06:55;29.60;94.50
51793;DHT22;37850;53.178;6.376;2023-07-09T13:09:25;29.50;94.50
51793;DHT22;37850;53.178;6.376;2023-07-09T13:11:51;29.50;94.30
51793;DHT22;37850;53.178;6.376;2023-07-09T13:14:25;29.50;94.40
51793;DHT22;37850;53.178;6.376;2023-07-09T13:16:51;29.40;94.70
51793;DHT22;37850;53.178;6.376;2023-07-09T13:19:18;29.40;95.10
51793;DHT22;37850;53.178;6.376;2023-07-09T13:21:44;29.50;94.90
51793;DHT22;37850;53.178;6.376;2023-07-09T13:26:40;29.50;94.70
51793;DHT22;37850;53.178;6.376;2023-07-09T13:29:16;29.50;94.20
51793;DHT22;37850;53.178;6.376;2023-07-09T13:31:44;29.50;94.60
51793;DHT22;37850;53.178;6.376;2023-07-09T13:34:18;29.50;94.30
51793;DHT22;37850;53.178;6.376;2023-07-09T13:36:45;29.60;94.30
51793;DHT22;37850;53.178;6.376;2023-07-09T13:39:11;29.60;93.80
51793;DHT22;37850;53.178;6.376;2023-07-09T13:41:38;29.50;93.30
51793;DHT22;37850;53.178;6.376;2023-07-09T13:44:14;29.50;92.90
51793;DHT22;37850;53.178;6.376;2023-07-09T13:46:40;29.50;92.90
51793;DHT22;37850;53.178;6.376;2023-07-09T13:49:16;29.40;93.20
51793;DHT22;37850;53.178;6.376;2023-07-09T13:51:44;29.40;92.90
51793;DHT22;37850;53.178;6.376;2023-07-09T13:54:26;29.40;93.40
51793;DHT22;37850;53.178;6.376;2023-07-09T13:56:53;29.50;93.30
51793;DHT22;37850;53.178;6.376;2023-07-09T13:59:23;29.50;92.90
51793;DHT22;37850;53.178;6.376;2023-07-09T14:01:52;29.50;93.30
51793;DHT22;37850;53.178;6.376;2023-07-09T14:04:19;29.50;93.10
51793;DHT22;37850;53.178;6.376;2023-07-09T14:06:46;29.50;92.90
51793;DHT22;37850;53.178;6.376;2023-07-09T14:09:13;29.50;93.10
51793;DHT22;37850;53.178;6.376;2023-07-09T14:11:44;29.50;93.00
51793;DHT22;37850;53.178;6.376;2023-07-09T14:14:32;29.50;92.90
51793;DHT22;37850;53.178;6.376;2023-07-09T14:16:58;29.50;92.60
51793;DHT22;37850;53.178;6.376;2023-07-09T14:19:24;29.40;92.90
51793;DHT22;37850;53.178;6.376;2023-07-09T14:21:51;29.40;93.10
51793;DHT22;37850;53.178;6.376;2023-07-09T14:24:24;29.30;92.60
51793;DHT22;37850;53.178;6.376;2023-07-09T14:26:51;29.20;92.60
51793;DHT22;37850;53.178;6.376;2023-07-09T14:29:17;29.20;92.90
51793;DHT22;37850;53.178;6.376;2023-07-09T14:31:45;29.10;92.70
51793;DHT22;37850;53.178;6.376;2023-07-09T14:34:22;29.10;93.20
51793;DHT22;37850;53.178;6.376;2023-07-09T14:36:51;29.00;93.00
51793;DHT22;37850;53.178;6.376;2023-07-09T14:39:17;28.90;93.30
51793;DHT22;37850;53.178;6.376;2023-07-09T14:41:43;28.90;93.50
51793;DHT22;37850;53.178;6.376;2023-07-09T14:44:30;28.80;93.60
51793;DHT22;37850;53.178;6.376;2023-07-09T14:46:59;28.70;93.50
51793;DHT22;37850;53.178;6.376;2023-07-09T14:49:26;28.60;93.70
51793;DHT22;37850;53.178;6.376;2023-07-09T14:51:52;28.60;94.10
51793;DHT22;37850;53.178;6.376;2023-07-09T14:54:24;28.50;94.60
51793;DHT22;37850;53.178;6.376;2023-07-09T14:56:51;28.40;94.50
51793;DHT22;37850;53.178;6.376;2023-07-09T14:59:17;28.40;94.90
51793;DHT22;37850;53.178;6.376;2023-07-09T15:01:44;28.30;95.00
51793;DHT22;37850;53.178;6.376;2023-07-09T15:04:31;28.20;94.80
51793;DHT22;37850;53.178;6.376;2023-07-09T15:06:57;28.20;94.80
51793;DHT22;37850;53.178;6.376;2023-07-09T15:09:27;28.00;94.60
51793;DHT22;37850;53.178;6.376;2023-07-09T15:12:03;27.90;94.60
51793;DHT22;37850;53.178;6.376;2023-07-09T15:14:28;27.80;94.20
51793;DHT22;37850;53.178;6.376;2023-07-09T15:16:55;27.60;93.50
51793;DHT22;37850;53.178;6.376;2023-07-09T15:19:22;27.50;93.10
51793;DHT22;37850;53.178;6.376;2023-07-09T15:21:49;27.30;92.70
51793;DHT22;37850;53.178;6.376;2023-07-09T15:24:31;27.10;92.90
51793;DHT22;37850;53.178;6.376;2023-07-09T15:26:58;26.80;93.50
51793;DHT22;37850;53.178;6.376;2023-07-09T15:29:26;26.60;93.90
51793;DHT22;37850;53.178;6.376;2023-07-09T15:31:52;26.40;94.50
51793;DHT22;37850;53.178;6.376;2023-07-09T15:34:18;26.20;95.30
51793;DHT22;37850;53.178;6.376;2023-07-09T15:36:47;26.00;95.80
51793;DHT22;37850;53.178;6.376;2023-07-09T15:39:14;25.70;96.90
51793;DHT22;37850;53.178;6.376;2023-07-09T15:41:40;25.50;98.00
51793;DHT22;37850;53.178;6.376;2023-07-09T15:44:17;25.30;99.40
51793;DHT22;37850;53.178;6.376;2023-07-09T15:46:52;25.10;99.90
51793;DHT22;37850;53.178;6.376;2023-07-09T15:49:19;25.00;99.90
51793;DHT22;37850;53.178;6.376;2023-07-09T15:51:45;24.90;99.90
51793;DHT22;37850;53.178;6.376;2023-07-09T15:54:16;24.80;99.90
51793;DHT22;37850;53.178;6.376;2023-07-09T15:56:43;24.70;99.90
51793;DHT22;37850;53.178;6.376;2023-07-09T15:59:32;24.60;99.90
51793;DHT22;37850;53.178;6.376;2023-07-09T16:02:00;24.50;99.90
51793;DHT22;37850;53.178;6.376;2023-07-09T16:04:26;24.40;99.90
51793;DHT22;37850;53.178;6.376;2023-07-09T16:06:52;24.30;99.90
51793;DHT22;37850;53.178;6.376;2023-07-09T16:09:19;24.20;99.90
51793;DHT22;37850;53.178;6.376;2023-07-09T16:11:47;24.10;99.90
51793;DHT22;37850;53.178;6.376;2023-07-09T16:14:29;24.00;99.90
51793;DHT22;37850;53.178;6.376;2023-07-09T16:16:57;23.90;99.90
51793;DHT22;37850;53.178;6.376;2023-07-09T16:19:26;23.80;99.90
51793;DHT22;37850;53.178;6.376;2023-07-09T16:22:00;23.70;99.90
51793;DHT22;37850;53.178;6.376;2023-07-09T16:24:28;23.60;99.90
51793;DHT22;37850;53.178;6.376;2023-07-09T16:27:00;23.50;99.90
51793;DHT22;37850;53.178;6.376;2023-07-09T16:29:31;23.30;99.90
51793;DHT22;37850;53.178;6.376;2023-07-09T16:31:58;23.20;99.90
51793;DHT22;37850;53.178;6.376;2023-07-09T16:34:25;23.10;99.90